createdAt,value
2022-12-29T00:00:19.268Z,75.40
2022-12-29T00:02:46.655Z,75.50
2022-12-29T00:05:15.546Z,75.10
2022-12-29T00:07:42.780Z,75.40
2022-12-29T00:10:10.033Z,75.10
2022-12-29T00:12:55.922Z,74.80
2022-12-29T00:15:38.530Z,75.00
2022-12-29T00:18:06.028Z,74.90
2022-12-29T00:20:54.649Z,74.70
2022-12-29T00:23:40.524Z,74.60
2022-12-29T00:26:33.475Z,74.50
2022-12-29T00:29:19.630Z,74.60
2022-12-29T00:32:05.719Z,74.30
2022-12-29T00:35:11.489Z,74.30
2022-12-29T00:38:05.522Z,74.30
2022-12-29T00:40:51.914Z,74.20
2022-12-29T00:43:38.030Z,73.90
2022-12-29T00:46:05.310Z,73.90
2022-12-29T00:48:51.027Z,74.10
2022-12-29T00:51:18.269Z,74.00
2022-12-29T00:53:46.793Z,74.00
2022-12-29T00:56:13.979Z,74.00
2022-12-29T00:58:41.336Z,73.80
2022-12-29T01:01:09.874Z,74.00
2022-12-29T01:03:38.213Z,73.80
2022-12-29T01:06:07.500Z,73.90
2022-12-29T01:08:35.469Z,74.10
2022-12-29T01:11:06.319Z,74.10
2022-12-29T01:13:34.948Z,74.20
2022-12-29T01:16:02.642Z,74.00
2022-12-29T01:18:29.907Z,73.90
2022-12-29T01:21:00.993Z,73.80
2022-12-29T01:23:29.300Z,73.90
2022-12-29T01:25:56.912Z,74.00
2022-12-29T01:28:26.562Z,74.20
2022-12-29T01:30:53.748Z,73.90
2022-12-29T01:33:20.950Z,74.00
2022-12-29T01:35:48.176Z,73.90
2022-12-29T01:38:15.443Z,73.40
2022-12-29T01:40:46.425Z,73.50
2022-12-29T01:43:15.835Z,73.30
2022-12-29T01:45:51.404Z,73.90
2022-12-29T01:48:20.536Z,74.00
2022-12-29T01:50:52.513Z,74.00
2022-12-29T01:53:25.408Z,74.10
2022-12-29T01:55:59.236Z,73.90
2022-12-29T01:58:31.570Z,74.00
2022-12-29T02:01:01.626Z,74.40
2022-12-29T02:03:31.497Z,74.10
2022-12-29T02:06:06.938Z,74.40
2022-12-29T02:08:34.578Z,74.50
2022-12-29T02:11:02.109Z,74.60
2022-12-29T02:13:29.823Z,74.90
2022-12-29T02:16:12.875Z,74.90
2022-12-29T02:18:47.842Z,75.00
2022-12-29T02:21:51.709Z,74.80
2022-12-29T02:24:46.174Z,74.40
2022-12-29T02:27:35.122Z,74.20
2022-12-29T02:30:16.409Z,74.00
2022-12-29T02:32:59.636Z,73.90
2022-12-29T02:35:34.295Z,73.90
2022-12-29T02:38:09.654Z,73.90
2022-12-29T02:40:44.192Z,73.50
2022-12-29T02:43:20.126Z,73.50
2022-12-29T02:45:54.761Z,73.60
2022-12-29T02:48:28.843Z,73.50
2022-12-29T02:51:01.472Z,73.10
2022-12-29T02:53:49.266Z,72.90
2022-12-29T02:56:16.468Z,72.80
2022-12-29T02:58:46.380Z,72.90
2022-12-29T03:01:26.281Z,72.70
2022-12-29T03:04:07.859Z,72.50
2022-12-29T03:06:42.817Z,72.60
2022-12-29T03:09:20.592Z,72.20
2022-12-29T03:12:11.172Z,72.40
2022-12-29T03:15:08.683Z,72.10
2022-12-29T03:17:51.126Z,72.10
2022-12-29T03:20:24.752Z,72.20
2022-12-29T03:23:01.588Z,71.40
2022-12-29T03:25:34.732Z,71.50
2022-12-29T03:28:09.201Z,71.30
2022-12-29T03:30:43.039Z,71.50
2022-12-29T03:33:14.962Z,71.50
2022-12-29T03:35:46.492Z,71.40
2022-12-29T03:38:18.399Z,71.40
2022-12-29T03:40:50.543Z,71.20
2022-12-29T03:43:18.928Z,71.00
2022-12-29T03:45:47.609Z,71.00
2022-12-29T03:48:14.856Z,71.30
2022-12-29T03:50:43.888Z,71.20
2022-12-29T03:53:11.290Z,71.10
2022-12-29T03:55:39.786Z,71.10
2022-12-29T03:58:07.148Z,71.30
2022-12-29T04:00:51.942Z,71.20
2022-12-29T04:03:19.414Z,71.10
2022-12-29T04:05:47.964Z,71.30
2022-12-29T04:08:16.114Z,71.10
2022-12-29T04:10:44.157Z,71.10
2022-12-29T04:13:11.465Z,71.10
2022-12-29T04:15:39.922Z,70.80
2022-12-29T04:18:07.218Z,71.20
2022-12-29T04:20:53.267Z,71.10
2022-12-29T04:23:21.969Z,71.20
2022-12-29T04:25:49.403Z,70.90
2022-12-29T04:28:17.432Z,71.20
2022-12-29T04:31:02.205Z,71.20
2022-12-29T04:33:35.056Z,71.20
2022-12-29T04:36:02.896Z,71.20
2022-12-29T04:38:31.540Z,71.00
2022-12-29T04:41:01.573Z,70.40
2022-12-29T04:43:30.207Z,70.50
2022-12-29T04:46:15.954Z,70.40
2022-12-29T04:48:52.056Z,70.40
2022-12-29T04:51:45.468Z,70.50
2022-12-29T04:54:15.827Z,70.50
2022-12-29T04:56:46.099Z,70.40
2022-12-29T04:59:16.359Z,70.50
2022-12-29T05:01:47.534Z,70.70
2022-12-29T05:04:15.053Z,70.70
2022-12-29T05:06:43.513Z,70.90
2022-12-29T05:09:10.991Z,70.90
2022-12-29T05:11:39.514Z,70.80
2022-12-29T05:14:06.874Z,70.70
2022-12-29T05:16:35.962Z,70.80
2022-12-29T05:19:03.526Z,71.00
2022-12-29T05:21:31.828Z,71.00
2022-12-29T05:24:00.100Z,71.00
2022-12-29T05:26:28.354Z,71.10
2022-12-29T05:29:24.570Z,71.20
2022-12-29T05:31:52.001Z,71.00
2022-12-29T05:34:19.485Z,71.00
2022-12-29T05:36:46.713Z,71.10
2022-12-29T05:39:15.492Z,71.10
2022-12-29T05:41:44.892Z,71.20
2022-12-29T05:44:32.189Z,71.20
2022-12-29T05:47:14.820Z,71.40
2022-12-29T05:49:48.184Z,71.50
2022-12-29T05:52:22.691Z,71.40
2022-12-29T05:54:50.231Z,71.20
2022-12-29T05:57:20.672Z,71.40
2022-12-29T05:59:56.901Z,71.60
2022-12-29T06:02:24.314Z,71.70
2022-12-29T06:04:51.796Z,71.30
2022-12-29T06:07:19.456Z,71.20
2022-12-29T06:09:48.414Z,71.20
2022-12-29T06:12:15.615Z,71.50
2022-12-29T06:14:45.487Z,71.60
2022-12-29T06:17:14.059Z,71.50
2022-12-29T06:19:41.872Z,71.50
2022-12-29T06:22:09.063Z,71.30
2022-12-29T06:24:36.940Z,71.10
2022-12-29T06:27:04.406Z,71.00
2022-12-29T06:29:32.776Z,71.00
2022-12-29T06:32:00.139Z,71.10
2022-12-29T06:34:32.708Z,71.10
2022-12-29T06:36:59.916Z,71.10
2022-12-29T06:39:27.095Z,71.00
2022-12-29T06:42:05.323Z,70.90
2022-12-29T06:44:47.743Z,71.00
2022-12-29T06:47:14.981Z,70.90
2022-12-29T06:49:43.483Z,70.70
2022-12-29T06:52:13.047Z,70.90
2022-12-29T06:54:40.754Z,70.70
2022-12-29T06:57:08.174Z,70.80
2022-12-29T06:59:35.396Z,70.80
2022-12-29T07:02:03.243Z,71.10
2022-12-29T07:04:30.858Z,70.80
2022-12-29T07:06:59.402Z,70.90
2022-12-29T07:09:26.901Z,71.10
2022-12-29T07:11:54.132Z,71.00
2022-12-29T07:14:21.299Z,70.90
2022-12-29T07:16:48.484Z,70.90
2022-12-29T07:19:15.948Z,70.80
2022-12-29T07:21:46.113Z,71.00
2022-12-29T07:24:14.643Z,71.20
2022-12-29T07:26:42.697Z,71.30
2022-12-29T07:29:10.006Z,71.30
2022-12-29T07:31:37.331Z,71.40
2022-12-29T07:34:04.573Z,71.50
2022-12-29T07:36:34.679Z,71.40
2022-12-29T07:39:02.425Z,71.50
2022-12-29T07:41:31.016Z,71.30
2022-12-29T07:44:00.155Z,71.50
2022-12-29T07:46:57.839Z,71.50
2022-12-29T07:49:26.294Z,71.40
2022-12-29T07:51:53.579Z,71.60
2022-12-29T07:54:20.800Z,71.50
2022-12-29T07:56:49.337Z,71.30
2022-12-29T07:59:16.679Z,71.40
2022-12-29T08:01:43.916Z,71.40
2022-12-29T08:04:11.222Z,71.20
2022-12-29T08:06:38.790Z,71.00
2022-12-29T08:09:13.609Z,71.20
2022-12-29T08:11:45.426Z,70.90
2022-12-29T08:14:13.981Z,70.80
2022-12-29T08:16:41.387Z,70.70
2022-12-29T08:19:11.051Z,70.70
2022-12-29T08:21:38.269Z,70.40
2022-12-29T08:24:06.276Z,70.30
2022-12-29T08:26:33.590Z,70.30
2022-12-29T08:29:00.797Z,70.20
2022-12-29T08:31:29.354Z,70.40
2022-12-29T08:33:56.604Z,70.30
2022-12-29T08:36:23.918Z,70.50
2022-12-29T08:38:51.137Z,70.10
2022-12-29T08:41:18.335Z,70.00
2022-12-29T08:43:47.007Z,70.10
2022-12-29T08:46:14.303Z,70.10
2022-12-29T08:48:43.017Z,69.90
2022-12-29T08:51:10.294Z,70.00
2022-12-29T08:53:37.529Z,70.00
2022-12-29T08:56:05.934Z,70.00
2022-12-29T08:58:43.281Z,70.70
2022-12-29T09:01:11.478Z,70.00
2022-12-29T09:04:12.901Z,69.00
2022-12-29T09:06:27.359Z,69.00
2022-12-29T09:08:54.758Z,68.50
2022-12-29T09:11:24.777Z,68.10
2022-12-29T09:13:52.904Z,67.50
2022-12-29T09:16:22.743Z,67.70
2022-12-29T09:18:50.063Z,67.10
2022-12-29T09:21:17.275Z,67.30
2022-12-29T09:23:45.801Z,66.90
2022-12-29T09:26:13.010Z,66.30
2022-12-29T09:28:41.084Z,65.90
2022-12-29T09:31:08.363Z,64.70
2022-12-29T09:33:35.691Z,64.20
2022-12-29T09:36:03.667Z,63.90
2022-12-29T09:38:31.586Z,62.60
2022-12-29T09:41:05.897Z,62.40
2022-12-29T09:43:52.149Z,61.90
2022-12-29T09:46:26.423Z,61.20
2022-12-29T09:49:02.419Z,61.70
2022-12-29T09:51:31.824Z,62.30
2022-12-29T09:54:05.128Z,63.30
2022-12-29T09:56:33.704Z,62.40
2022-12-29T09:59:06.948Z,62.20
2022-12-29T10:01:42.442Z,61.30
2022-12-29T10:04:10.115Z,61.10
2022-12-29T10:07:03.957Z,61.90
2022-12-29T10:09:39.178Z,62.30
2022-12-29T10:12:21.114Z,62.80
2022-12-29T10:14:59.455Z,62.90
2022-12-29T10:17:36.519Z,62.40
2022-12-29T10:20:21.690Z,62.30
2022-12-29T10:23:04.391Z,62.70
2022-12-29T10:25:38.166Z,62.40
2022-12-29T10:28:16.481Z,62.90
2022-12-29T10:30:46.872Z,63.00
2022-12-29T10:33:19.296Z,63.40
2022-12-29T10:35:48.397Z,62.60
2022-12-29T10:38:23.862Z,62.40
2022-12-29T10:40:57.292Z,62.90
2022-12-29T10:43:28.063Z,61.90
2022-12-29T10:45:58.716Z,62.50
2022-12-29T10:48:31.937Z,61.40
2022-12-29T10:51:02.593Z,61.20
2022-12-29T10:53:39.315Z,60.90
2022-12-29T10:56:15.964Z,60.20
2022-12-29T10:58:49.698Z,60.70
2022-12-29T11:01:18.388Z,60.70
2022-12-29T11:04:04.881Z,60.60
2022-12-29T11:06:33.009Z,61.40
2022-12-29T11:09:09.560Z,60.80
2022-12-29T11:11:37.787Z,61.20
2022-12-29T11:14:14.339Z,61.70
2022-12-29T11:16:42.774Z,61.90
2022-12-29T11:19:22.387Z,62.10
2022-12-29T11:21:49.721Z,62.20
2022-12-29T11:24:22.816Z,62.80
2022-12-29T11:26:51.567Z,63.00
2022-12-29T11:29:27.775Z,63.50
2022-12-29T11:31:56.564Z,64.20
2022-12-29T11:34:26.209Z,64.00
2022-12-29T11:37:01.020Z,64.70
2022-12-29T11:39:43.150Z,65.00
2022-12-29T11:42:16.134Z,66.00
2022-12-29T11:44:46.804Z,66.60
2022-12-29T11:47:24.231Z,67.30
2022-12-29T11:49:54.498Z,67.60
2022-12-29T11:52:24.617Z,67.70
2022-12-29T11:54:52.474Z,67.70
2022-12-29T11:57:22.911Z,67.60
2022-12-29T11:59:55.940Z,68.10
2022-12-29T12:02:44.132Z,68.40
2022-12-29T12:05:18.805Z,68.20
2022-12-29T12:07:50.262Z,68.60
2022-12-29T12:10:23.799Z,69.20
2022-12-29T12:12:59.480Z,69.90
2022-12-29T12:15:32.559Z,70.70
2022-12-29T12:18:06.309Z,71.00
2022-12-29T12:20:42.267Z,71.60
2022-12-29T12:23:23.308Z,72.40
2022-12-29T12:26:01.496Z,72.50
2022-12-29T12:28:38.279Z,72.90
2022-12-29T12:31:18.229Z,72.40
2022-12-29T12:33:49.225Z,73.00
2022-12-29T12:36:50.315Z,72.80
2022-12-29T12:39:27.474Z,73.40
2022-12-29T12:42:07.096Z,74.00
2022-12-29T12:44:43.797Z,73.70
2022-12-29T12:47:45.351Z,73.70
2022-12-29T12:50:40.466Z,73.50
2022-12-29T12:53:34.153Z,73.30
2022-12-29T12:56:27.155Z,73.00
2022-12-29T12:59:05.667Z,73.50
2022-12-29T13:01:43.077Z,73.40
2022-12-29T13:04:35.187Z,74.30
2022-12-29T13:07:13.002Z,74.60
2022-12-29T13:09:53.820Z,74.90
2022-12-29T13:12:33.148Z,74.10
2022-12-29T13:15:10.151Z,74.30
2022-12-29T13:17:44.922Z,74.40
2022-12-29T13:20:23.854Z,74.90
2022-12-29T13:22:59.594Z,75.00
2022-12-29T13:25:33.585Z,74.10
2022-12-29T13:28:07.502Z,73.60
2022-12-29T13:30:39.743Z,73.00
2022-12-29T13:33:21.412Z,72.70
2022-12-29T13:35:59.454Z,72.20
2022-12-29T13:38:33.461Z,72.40
2022-12-29T13:41:04.267Z,72.00
2022-12-29T13:43:35.106Z,72.10
2022-12-29T13:46:07.688Z,72.20
2022-12-29T13:48:47.306Z,72.10
2022-12-29T13:51:19.161Z,72.30
2022-12-29T13:54:02.158Z,72.60
2022-12-29T13:56:36.748Z,72.60
2022-12-29T13:59:17.766Z,72.70
2022-12-29T14:01:51.733Z,72.80
2022-12-29T14:04:24.273Z,73.10
2022-12-29T14:07:03.813Z,72.90
2022-12-29T14:09:41.648Z,73.00
2022-12-29T14:12:29.021Z,73.20
2022-12-29T14:15:04.939Z,73.30
2022-12-29T14:17:44.743Z,73.40
2022-12-29T14:20:20.613Z,73.40
2022-12-29T14:22:59.682Z,73.30
2022-12-29T14:25:56.118Z,73.60
2022-12-29T14:28:25.822Z,73.60
2022-12-29T14:30:54.631Z,73.80
2022-12-29T14:33:23.351Z,73.90
2022-12-29T14:35:53.136Z,74.10
2022-12-29T14:38:24.642Z,74.20
2022-12-29T14:40:52.862Z,74.20
2022-12-29T14:43:24.301Z,74.00
2022-12-29T14:45:58.280Z,73.80
2022-12-29T14:48:42.830Z,73.70
2022-12-29T14:51:25.600Z,73.70
2022-12-29T14:53:54.155Z,73.80
2022-12-29T14:56:26.897Z,73.80
2022-12-29T14:58:56.250Z,74.00
2022-12-29T15:01:36.326Z,73.90
2022-12-29T15:04:14.373Z,74.20
2022-12-29T15:06:42.752Z,74.50
2022-12-29T15:09:24.242Z,74.50
2022-12-29T15:11:55.281Z,74.60
2022-12-29T15:14:36.868Z,74.40
2022-12-29T15:17:22.648Z,74.40
2022-12-29T15:19:49.855Z,74.40
2022-12-29T15:22:17.390Z,74.70
2022-12-29T15:24:46.216Z,75.00
2022-12-29T15:27:16.205Z,74.80
2022-12-29T15:29:45.570Z,75.50
2022-12-29T15:32:21.991Z,75.90
2022-12-29T15:34:51.134Z,75.60
2022-12-29T15:37:23.668Z,75.70
2022-12-29T15:39:53.529Z,75.20
2022-12-29T15:42:48.205Z,74.70
2022-12-29T15:45:16.071Z,74.70
2022-12-29T15:47:47.540Z,74.40
2022-12-29T15:50:23.089Z,74.50
2022-12-29T15:52:51.165Z,74.70
2022-12-29T15:55:25.717Z,74.80
2022-12-29T15:57:57.327Z,74.80
2022-12-29T16:00:26.961Z,74.70
2022-12-29T16:02:56.650Z,74.60
2022-12-29T16:05:24.170Z,74.60
2022-12-29T16:07:56.438Z,74.60
2022-12-29T16:10:31.331Z,74.70
2022-12-29T16:13:07.868Z,74.60
2022-12-29T16:15:35.147Z,74.60
2022-12-29T16:18:02.442Z,74.50
2022-12-29T16:20:38.616Z,74.40
2022-12-29T16:23:06.133Z,74.30
2022-12-29T16:25:38.243Z,74.20
2022-12-29T16:28:17.892Z,74.40
2022-12-29T16:30:45.294Z,74.00
2022-12-29T16:33:39.825Z,73.90
2022-12-29T16:36:30.850Z,73.40
2022-12-29T16:39:22.739Z,73.40
2022-12-29T16:41:51.681Z,72.80
2022-12-29T16:44:20.358Z,72.60
2022-12-29T16:47:06.150Z,72.50
2022-12-29T16:49:35.227Z,72.00
2022-12-29T16:52:11.576Z,71.90
2022-12-29T16:54:39.978Z,71.90
2022-12-29T16:57:10.240Z,71.60
2022-12-29T16:59:43.155Z,71.40
2022-12-29T17:02:15.945Z,71.00
2022-12-29T17:04:43.621Z,71.30
2022-12-29T17:07:18.183Z,70.90
2022-12-29T17:09:45.433Z,71.00
2022-12-29T17:12:18.187Z,71.10
2022-12-29T17:14:46.975Z,70.70
2022-12-29T17:17:18.104Z,70.90
2022-12-29T17:19:49.459Z,70.60
2022-12-29T17:22:18.885Z,70.50
2022-12-29T17:24:46.091Z,70.10
2022-12-29T17:27:26.985Z,69.80
2022-12-29T17:29:57.096Z,69.80
2022-12-29T17:32:24.456Z,69.60
2022-12-29T17:34:51.632Z,69.40
2022-12-29T17:37:32.228Z,69.70
2022-12-29T17:39:59.466Z,69.00
2022-12-29T17:42:28.058Z,68.70
2022-12-29T17:44:55.550Z,68.30
2022-12-29T17:47:22.744Z,68.70
2022-12-29T17:49:50.010Z,68.50
2022-12-29T17:52:17.803Z,68.40
2022-12-29T17:54:49.367Z,68.70
2022-12-29T17:57:19.259Z,68.80
2022-12-29T17:59:48.170Z,68.70
2022-12-29T18:02:26.453Z,68.20
2022-12-29T18:04:54.574Z,68.50
2022-12-29T18:07:22.536Z,68.40
2022-12-29T18:09:49.777Z,68.60
2022-12-29T18:12:35.641Z,68.40
2022-12-29T18:15:05.336Z,68.50
2022-12-29T18:17:32.543Z,68.80
2022-12-29T18:19:59.736Z,68.60
2022-12-29T18:22:29.012Z,68.40
2022-12-29T18:24:56.460Z,68.50
2022-12-29T18:27:23.664Z,68.60
2022-12-29T18:29:50.885Z,68.50
2022-12-29T18:32:19.523Z,68.40
2022-12-29T18:34:48.239Z,68.20
2022-12-29T18:37:15.432Z,68.60
2022-12-29T18:39:42.686Z,68.80
2022-12-29T18:42:15.905Z,68.70
2022-12-29T18:44:43.090Z,68.80
2022-12-29T18:47:10.393Z,68.40
2022-12-29T18:49:38.960Z,68.40
2022-12-29T18:52:06.161Z,68.80
2022-12-29T18:54:33.689Z,68.50
2022-12-29T18:57:00.949Z,68.90
2022-12-29T18:59:28.146Z,68.70
2022-12-29T19:01:55.400Z,68.70
2022-12-29T19:04:22.688Z,68.90
2022-12-29T19:06:51.269Z,68.80
2022-12-29T19:09:18.743Z,68.60
2022-12-29T19:11:45.931Z,68.50
2022-12-29T19:14:17.203Z,68.60
2022-12-29T19:16:44.692Z,68.90
2022-12-29T19:19:16.387Z,69.00
2022-12-29T19:21:44.153Z,68.80
2022-12-29T19:24:12.663Z,69.10
2022-12-29T19:26:40.656Z,69.10
2022-12-29T19:29:13.423Z,68.90
2022-12-29T19:31:40.714Z,69.30
2022-12-29T19:34:08.112Z,69.40
2022-12-29T19:36:35.317Z,69.40
2022-12-29T19:39:02.573Z,69.70
2022-12-29T19:41:31.285Z,69.80
2022-12-29T19:43:58.504Z,69.90
2022-12-29T19:46:25.854Z,69.80
2022-12-29T19:48:54.819Z,69.80
2022-12-29T19:51:22.067Z,70.00
2022-12-29T19:53:49.228Z,70.30
2022-12-29T19:56:17.298Z,70.70
2022-12-29T19:58:47.796Z,70.90
2022-12-29T20:01:18.170Z,71.00
2022-12-29T20:03:45.539Z,71.20
2022-12-29T20:06:13.531Z,71.20
2022-12-29T20:08:41.175Z,71.30
2022-12-29T20:11:10.352Z,71.50
2022-12-29T20:13:37.929Z,71.40
2022-12-29T20:16:08.618Z,71.40
2022-12-29T20:18:36.187Z,71.40
2022-12-29T20:21:04.376Z,71.60
2022-12-29T20:23:32.980Z,71.70
2022-12-29T20:26:01.034Z,71.60
2022-12-29T20:28:29.195Z,71.60
2022-12-29T20:30:58.578Z,71.60
2022-12-29T20:33:27.926Z,71.90
2022-12-29T20:35:55.277Z,71.90
2022-12-29T20:38:22.568Z,71.50
2022-12-29T20:40:49.796Z,71.70
2022-12-29T20:43:17.034Z,71.40
2022-12-29T20:45:44.408Z,71.30
2022-12-29T20:48:11.976Z,71.30
2022-12-29T20:50:40.539Z,71.30
2022-12-29T20:53:07.821Z,71.10
2022-12-29T20:55:35.525Z,71.10
2022-12-29T21:00:50.108Z,70.90
2022-12-29T21:03:17.537Z,70.70
2022-12-29T21:05:46.428Z,70.70
2022-12-29T21:08:13.655Z,70.60
2022-12-29T21:10:40.860Z,70.40
2022-12-29T21:13:08.045Z,70.80
2022-12-29T21:15:35.283Z,70.60
2022-12-29T21:18:02.466Z,70.50
2022-12-29T21:20:31.609Z,70.50
2022-12-29T21:23:01.293Z,70.50
2022-12-29T21:25:39.701Z,70.30
2022-12-29T21:28:08.680Z,70.10
2022-12-29T21:30:36.418Z,69.90
2022-12-29T21:33:04.676Z,70.00
2022-12-29T21:35:35.131Z,70.10
2022-12-29T21:38:03.840Z,70.00
2022-12-29T21:40:31.332Z,69.60
2022-12-29T21:42:59.021Z,69.80
2022-12-29T21:45:26.306Z,69.80
2022-12-29T21:48:13.353Z,69.90
2022-12-29T21:51:01.804Z,69.60
2022-12-29T21:53:40.056Z,69.50
2022-12-29T21:56:09.807Z,69.40
2022-12-29T21:58:56.679Z,69.00
2022-12-29T22:01:44.396Z,69.20
2022-12-29T22:04:31.721Z,68.90
2022-12-29T22:07:17.459Z,69.10
2022-12-29T22:10:04.730Z,69.00
2022-12-29T22:12:50.760Z,68.60
2022-12-29T22:15:18.160Z,68.60
2022-12-29T22:17:48.719Z,68.60
2022-12-29T22:20:16.662Z,68.40
2022-12-29T22:22:43.913Z,67.90
2022-12-29T22:25:12.803Z,68.10
2022-12-29T22:27:40.361Z,68.50
2022-12-29T22:30:08.747Z,68.50
2022-12-29T22:32:36.122Z,68.40
2022-12-29T22:35:08.031Z,68.70
2022-12-29T22:37:36.248Z,68.60
2022-12-29T22:40:03.961Z,68.60
2022-12-29T22:42:32.759Z,68.30
2022-12-29T22:44:59.949Z,68.60
2022-12-29T22:47:27.360Z,68.70
2022-12-29T22:49:54.578Z,68.10
2022-12-29T22:52:22.434Z,68.40
2022-12-29T22:54:49.619Z,68.40
2022-12-29T22:57:16.813Z,68.60
2022-12-29T22:59:45.424Z,68.30
2022-12-29T23:02:12.740Z,68.70
2022-12-29T23:07:27.187Z,68.80
2022-12-29T23:09:54.415Z,68.80
2022-12-29T23:12:22.087Z,68.80
2022-12-29T23:14:50.677Z,68.90
2022-12-29T23:17:17.899Z,68.70
2022-12-29T23:19:45.106Z,68.80
2022-12-29T23:22:12.324Z,69.00
2022-12-29T23:24:39.516Z,68.90
2022-12-29T23:27:06.752Z,69.10
2022-12-29T23:29:34.070Z,68.90
2022-12-29T23:32:02.555Z,68.30
2022-12-29T23:34:29.813Z,68.60
2022-12-29T23:36:57.052Z,68.30
2022-12-29T23:39:24.741Z,68.60
2022-12-29T23:41:52.381Z,68.20
2022-12-29T23:44:19.777Z,68.60
2022-12-29T23:46:47.020Z,68.40
2022-12-29T23:49:15.810Z,68.30
2022-12-29T23:51:43.600Z,68.20
2022-12-29T23:54:10.883Z,68.00
2022-12-29T23:56:38.053Z,67.90
2022-12-29T23:59:06.034Z,68.00
